createdAt,value
2023-07-12T00:01:28.050Z,69.36
2023-07-12T00:03:58.112Z,70.36
2023-07-12T00:06:38.875Z,70.80
2023-07-12T00:09:14.168Z,70.91
2023-07-12T00:11:42.408Z,70.94
2023-07-12T00:14:09.459Z,70.87
2023-07-12T00:16:40.798Z,70.55
2023-07-12T00:19:14.372Z,70.71
2023-07-12T00:21:41.783Z,69.57
2023-07-12T00:24:10.672Z,68.88
2023-07-12T00:26:38.791Z,68.37
2023-07-12T00:29:08.402Z,66.70
2023-07-12T00:31:40.882Z,66.39
2023-07-12T00:34:08.145Z,66.71
2023-07-12T00:36:36.197Z,66.82
2023-07-12T00:39:06.489Z,68.00
2023-07-12T00:41:46.580Z,68.77
2023-07-12T00:44:22.859Z,69.06
2023-07-12T00:46:53.980Z,69.31
2023-07-12T00:49:21.177Z,69.95
2023-07-12T00:52:08.186Z,70.57
2023-07-12T00:54:54.790Z,71.17
2023-07-12T00:57:24.182Z,71.00
2023-07-12T00:59:53.934Z,71.28
2023-07-12T01:02:24.690Z,70.91
2023-07-12T01:04:57.255Z,70.49
2023-07-12T01:07:28.678Z,69.07
2023-07-12T01:09:55.840Z,69.45
2023-07-12T01:12:22.974Z,68.71
2023-07-12T01:14:50.614Z,68.97
2023-07-12T01:17:17.695Z,69.89
2023-07-12T01:19:49.431Z,69.34
2023-07-12T01:22:16.625Z,69.81
2023-07-12T01:24:43.903Z,70.04
2023-07-12T01:27:18.467Z,69.92
2023-07-12T01:29:46.722Z,67.99
2023-07-12T01:32:14.858Z,68.03
2023-07-12T01:34:47.001Z,69.28
2023-07-12T01:37:14.532Z,68.85
2023-07-12T01:39:41.890Z,69.00
2023-07-12T01:42:12.442Z,67.72
2023-07-12T01:44:43.764Z,67.60
2023-07-12T01:47:11.453Z,67.74
2023-07-12T01:49:38.507Z,68.95
2023-07-12T01:52:07.353Z,68.60
2023-07-12T01:54:34.522Z,67.44
2023-07-12T01:57:01.657Z,66.53
2023-07-12T01:59:28.678Z,67.27
2023-07-12T02:01:55.787Z,66.03
2023-07-12T02:04:22.994Z,66.65
2023-07-12T02:06:50.022Z,66.10
2023-07-12T02:09:17.717Z,67.31
2023-07-12T02:11:44.753Z,68.15
2023-07-12T02:14:12.016Z,67.03
2023-07-12T02:16:39.325Z,66.75
2023-07-12T02:19:06.609Z,65.07
2023-07-12T02:21:33.513Z,64.94
2023-07-12T02:24:01.750Z,67.47
2023-07-12T02:26:28.806Z,67.14
2023-07-12T02:28:55.769Z,66.38
2023-07-12T02:31:25.214Z,66.29
2023-07-12T02:33:54.912Z,64.26
2023-07-12T02:36:22.057Z,65.57
2023-07-12T02:38:49.182Z,64.99
2023-07-12T02:41:17.408Z,65.91
2023-07-12T02:43:48.770Z,66.37
2023-07-12T02:46:16.595Z,66.55
2023-07-12T02:48:45.400Z,66.16
2023-07-12T02:51:12.974Z,65.38
2023-07-12T02:53:41.443Z,66.14
2023-07-12T02:56:09.917Z,64.92
2023-07-12T02:58:37.495Z,65.00
2023-07-12T03:01:04.647Z,65.81
2023-07-12T03:03:31.952Z,65.13
2023-07-12T03:06:04.412Z,65.36
2023-07-12T03:08:31.525Z,64.82
2023-07-12T03:10:59.888Z,63.58
2023-07-12T03:13:27.242Z,63.98
2023-07-12T03:15:54.221Z,65.44
2023-07-12T03:18:21.767Z,65.43
2023-07-12T03:20:49.421Z,66.58
2023-07-12T03:23:18.040Z,65.84
2023-07-12T03:25:46.833Z,66.29
2023-07-12T03:28:14.483Z,66.75
2023-07-12T03:30:41.665Z,65.33
2023-07-12T03:33:09.257Z,66.13
2023-07-12T03:35:36.368Z,65.88
2023-07-12T03:38:03.462Z,64.22
2023-07-12T03:40:31.039Z,65.08
2023-07-12T03:42:58.130Z,66.00
2023-07-12T03:45:25.283Z,65.74
2023-07-12T03:47:52.600Z,66.17
2023-07-12T03:50:19.776Z,65.98
2023-07-12T03:52:46.787Z,67.07
2023-07-12T03:55:13.942Z,67.58
2023-07-12T03:57:43.271Z,66.07
2023-07-12T04:00:14.036Z,66.12
2023-07-12T04:02:42.466Z,66.64
2023-07-12T04:05:09.672Z,67.29
2023-07-12T04:07:36.678Z,68.36
2023-07-12T04:10:04.526Z,66.97
2023-07-12T04:12:32.037Z,67.56
2023-07-12T04:15:00.071Z,67.47
2023-07-12T04:17:27.798Z,67.25
2023-07-12T04:19:54.951Z,68.19
2023-07-12T04:22:22.008Z,68.96
2023-07-12T04:24:53.991Z,68.93
2023-07-12T04:27:21.380Z,69.44
2023-07-12T04:29:49.683Z,67.97
2023-07-12T04:32:18.989Z,68.17
2023-07-12T04:34:48.413Z,68.99
2023-07-12T04:37:19.013Z,68.31
2023-07-12T04:39:46.128Z,69.17
2023-07-12T04:42:13.210Z,69.65
2023-07-12T04:44:42.540Z,68.93
2023-07-12T04:47:10.425Z,68.79
2023-07-12T04:49:37.768Z,69.28
2023-07-12T04:52:07.114Z,70.22
2023-07-12T04:54:35.630Z,71.11
2023-07-12T04:57:02.721Z,70.74
2023-07-12T04:59:29.942Z,70.76
2023-07-12T05:01:57.032Z,70.96
2023-07-12T05:04:24.005Z,71.10
2023-07-12T05:06:53.097Z,70.87
2023-07-12T05:09:21.484Z,69.95
2023-07-12T05:11:50.050Z,69.52
2023-07-12T05:14:17.806Z,69.43
2023-07-12T05:16:44.880Z,70.05
2023-07-12T05:19:12.526Z,70.29
2023-07-12T05:21:39.904Z,70.78
2023-07-12T05:24:07.054Z,71.83
2023-07-12T05:26:34.852Z,72.48
2023-07-12T05:29:02.249Z,72.11
2023-07-12T05:31:29.300Z,72.51
2023-07-12T05:33:56.413Z,72.26
2023-07-12T05:36:23.469Z,71.61
2023-07-12T05:38:50.661Z,71.07
2023-07-12T05:41:17.691Z,70.24
2023-07-12T05:43:44.873Z,69.96
2023-07-12T05:46:12.030Z,70.08
2023-07-12T05:48:39.224Z,71.16
2023-07-12T05:51:09.427Z,71.58
2023-07-12T05:53:36.954Z,71.43
2023-07-12T05:56:06.138Z,71.33
2023-07-12T05:58:33.354Z,70.59
2023-07-12T06:01:02.248Z,70.91
2023-07-12T06:03:31.026Z,67.98
2023-07-12T06:05:58.562Z,69.57
2023-07-12T06:08:27.167Z,71.59
2023-07-12T06:10:55.452Z,71.82
2023-07-12T06:13:22.581Z,69.13
2023-07-12T06:15:49.694Z,68.08
2023-07-12T06:18:16.911Z,68.36
2023-07-12T06:20:43.957Z,68.06
2023-07-12T06:23:11.141Z,68.33
2023-07-12T06:25:39.101Z,66.15
2023-07-12T06:28:06.179Z,64.00
2023-07-12T06:30:33.199Z,64.83
2023-07-12T06:33:00.379Z,65.97
2023-07-12T06:35:27.451Z,65.51
2023-07-12T06:37:54.587Z,65.07
2023-07-12T06:40:21.618Z,62.73
2023-07-12T06:42:49.168Z,61.29
2023-07-12T06:45:16.540Z,62.95
2023-07-12T06:47:43.638Z,61.35
2023-07-12T06:50:11.145Z,62.27
2023-07-12T06:52:38.239Z,60.56
2023-07-12T06:55:05.838Z,61.09
2023-07-12T06:57:35.236Z,61.61
2023-07-12T07:00:08.710Z,60.94
2023-07-12T07:02:36.968Z,59.10
2023-07-12T07:05:05.459Z,57.77
2023-07-12T07:07:37.579Z,57.68
2023-07-12T07:10:04.893Z,59.81
2023-07-12T07:12:33.319Z,58.78
2023-07-12T07:15:00.432Z,58.85
2023-07-12T07:17:27.779Z,58.34
2023-07-12T07:19:54.920Z,56.54
2023-07-12T07:22:22.057Z,56.08
2023-07-12T07:24:49.219Z,56.10
2023-07-12T07:27:16.335Z,57.72
2023-07-12T07:29:43.502Z,58.18
2023-07-12T07:32:10.581Z,57.91
2023-07-12T07:34:37.768Z,56.08
2023-07-12T07:37:05.237Z,55.07
2023-07-12T07:39:32.648Z,55.25
2023-07-12T07:42:02.756Z,55.28
2023-07-12T07:44:30.001Z,54.97
2023-07-12T07:46:57.157Z,52.55
2023-07-12T07:49:24.292Z,51.91
2023-07-12T07:51:51.491Z,51.72
2023-07-12T07:54:18.772Z,51.88
2023-07-12T07:56:46.020Z,51.04
2023-07-12T07:59:13.715Z,52.56
2023-07-12T08:01:40.935Z,51.21
2023-07-12T08:04:09.948Z,51.71
2023-07-12T08:06:39.777Z,51.36
2023-07-12T08:09:08.787Z,51.70
2023-07-12T08:11:36.956Z,51.95
2023-07-12T08:14:04.612Z,51.03
2023-07-12T08:16:35.020Z,51.21
2023-07-12T08:19:09.096Z,50.56
2023-07-12T08:21:44.215Z,53.36
2023-07-12T08:24:11.907Z,52.45
2023-07-12T08:26:40.367Z,52.17
2023-07-12T08:29:10.793Z,52.58
2023-07-12T08:31:37.939Z,52.23
2023-07-12T08:34:05.107Z,53.51
2023-07-12T08:36:32.213Z,52.64
2023-07-12T08:38:59.565Z,53.06
2023-07-12T08:41:27.595Z,54.02
2023-07-12T08:43:55.133Z,54.65
2023-07-12T08:46:25.671Z,54.63
2023-07-12T08:49:00.842Z,54.17
2023-07-12T08:51:30.922Z,54.75
2023-07-12T08:53:58.667Z,52.92
2023-07-12T08:56:28.043Z,54.85
2023-07-12T08:58:57.175Z,55.54
2023-07-12T09:01:46.420Z,54.26
2023-07-12T09:04:21.656Z,54.63
2023-07-12T09:06:51.860Z,55.49
2023-07-12T09:09:21.518Z,55.16
2023-07-12T09:11:49.120Z,55.37
2023-07-12T09:14:19.071Z,55.67
2023-07-12T09:16:48.837Z,55.28
2023-07-12T09:19:17.355Z,55.85
2023-07-12T09:21:54.822Z,55.87
2023-07-12T09:24:25.806Z,55.41
2023-07-12T09:27:03.609Z,55.97
2023-07-12T09:29:32.628Z,55.17
2023-07-12T09:32:08.541Z,55.56
2023-07-12T09:34:39.074Z,55.46
2023-07-12T09:37:15.400Z,55.74
2023-07-12T09:39:42.689Z,55.28
2023-07-12T09:42:12.639Z,56.79
2023-07-12T09:44:39.707Z,56.42
2023-07-12T09:47:25.035Z,55.55
2023-07-12T09:50:18.709Z,55.53
2023-07-12T09:52:54.985Z,57.38
2023-07-12T09:55:33.404Z,57.03
2023-07-12T09:58:13.374Z,59.38
2023-07-12T10:00:52.720Z,60.65
2023-07-12T10:03:27.567Z,59.91
2023-07-12T10:06:16.175Z,60.42
2023-07-12T10:08:55.158Z,60.83
2023-07-12T10:11:37.613Z,61.82
2023-07-12T10:14:10.191Z,61.77
2023-07-12T10:16:46.290Z,62.78
2023-07-12T10:19:22.724Z,63.40
2023-07-12T10:21:52.219Z,63.60
2023-07-12T10:24:22.323Z,63.04
2023-07-12T10:26:49.530Z,61.09
2023-07-12T10:29:35.153Z,60.94
2023-07-12T10:32:07.172Z,62.15
2023-07-12T10:34:44.442Z,62.83
2023-07-12T10:37:37.114Z,61.63
2023-07-12T10:40:06.387Z,59.77
2023-07-12T10:42:41.748Z,59.73
2023-07-12T10:45:19.497Z,59.99
2023-07-12T10:47:48.915Z,60.73
2023-07-12T10:50:25.282Z,58.74
2023-07-12T10:52:57.445Z,58.92
2023-07-12T10:55:45.662Z,60.19
2023-07-12T10:58:15.998Z,58.68
2023-07-12T11:00:56.006Z,59.69
2023-07-12T11:03:33.868Z,59.21
2023-07-12T11:06:07.445Z,57.76
2023-07-12T11:08:34.545Z,58.58
2023-07-12T11:11:10.797Z,60.41
2023-07-12T11:13:45.402Z,59.81
2023-07-12T11:16:18.182Z,59.39
2023-07-12T11:18:50.284Z,58.58
2023-07-12T11:21:47.222Z,59.31
2023-07-12T11:24:26.839Z,58.22
2023-07-12T11:27:00.085Z,58.73
2023-07-12T11:29:35.922Z,58.53
2023-07-12T11:32:21.689Z,58.54
2023-07-12T11:34:49.616Z,57.82
2023-07-12T11:37:22.569Z,58.04
2023-07-12T11:39:50.949Z,60.31
2023-07-12T11:42:29.375Z,61.46
2023-07-12T11:45:07.150Z,61.11
2023-07-12T11:47:36.130Z,61.07
2023-07-12T11:50:05.080Z,61.85
2023-07-12T11:52:32.575Z,62.70
2023-07-12T11:55:05.496Z,63.46
2023-07-12T11:57:40.876Z,62.83
2023-07-12T12:00:26.741Z,63.52
2023-07-12T12:02:57.117Z,62.12
2023-07-12T12:05:32.432Z,63.97
2023-07-12T12:08:03.534Z,65.65
2023-07-12T12:10:36.339Z,65.91
2023-07-12T12:13:21.780Z,64.26
2023-07-12T12:15:53.371Z,64.90
2023-07-12T12:18:23.732Z,66.59
2023-07-12T12:20:58.255Z,67.14
2023-07-12T12:23:56.125Z,65.44
2023-07-12T12:26:37.500Z,67.40
2023-07-12T12:29:18.154Z,66.97
2023-07-12T12:32:06.790Z,66.90
2023-07-12T12:34:38.030Z,67.83
2023-07-12T12:37:08.260Z,68.75
2023-07-12T12:39:35.991Z,67.78
2023-07-12T12:42:22.882Z,66.85
2023-07-12T12:44:52.645Z,66.75
2023-07-12T12:47:31.993Z,67.57
2023-07-12T12:53:30.584Z,67.20
2023-07-12T12:58:16.915Z,67.48
2023-07-12T13:19:02.501Z,69.08
2023-07-12T13:21:25.088Z,70.29
2023-07-12T13:23:52.633Z,70.96
2023-07-12T13:26:22.558Z,70.24
2023-07-12T13:28:50.901Z,69.74
2023-07-12T13:31:20.639Z,69.25
2023-07-12T13:36:34.449Z,69.39
2023-07-12T13:46:46.362Z,70.67
2023-07-12T13:49:15.389Z,71.97
2023-07-12T13:51:43.352Z,72.47
2023-07-12T13:54:12.939Z,72.06
2023-07-12T14:01:44.963Z,71.25
2023-07-12T14:09:23.071Z,71.95
2023-07-12T14:11:50.586Z,71.50
2023-07-12T14:14:17.792Z,72.75
2023-07-12T14:16:45.190Z,71.14
2023-07-12T14:19:12.449Z,70.44
2023-07-12T14:21:39.834Z,70.00
2023-07-12T14:24:07.305Z,70.34
2023-07-12T14:26:35.581Z,69.82
2023-07-12T14:29:06.147Z,70.64
2023-07-12T14:31:37.413Z,71.26
2023-07-12T14:34:05.864Z,71.89
2023-07-12T14:36:33.086Z,71.87
2023-07-12T14:39:01.264Z,70.49
2023-07-12T14:41:32.035Z,71.62
2023-07-12T14:44:12.729Z,71.84
2023-07-12T14:46:40.965Z,71.29
2023-07-12T14:49:08.127Z,72.03
2023-07-12T14:51:36.243Z,71.69
2023-07-12T14:54:05.792Z,71.22
2023-07-12T14:56:32.983Z,71.94
2023-07-12T14:59:00.295Z,71.65
2023-07-12T15:01:30.042Z,72.37
2023-07-12T15:04:08.817Z,71.22
2023-07-12T15:06:36.621Z,71.54
2023-07-12T15:09:08.459Z,71.93
2023-07-12T15:11:43.685Z,71.51
2023-07-12T15:14:14.379Z,69.83
2023-07-12T15:16:45.580Z,69.53
2023-07-12T15:19:13.034Z,69.76
2023-07-12T15:21:42.042Z,70.04
2023-07-12T15:24:15.129Z,69.52
2023-07-12T15:26:42.236Z,70.19
2023-07-12T15:29:09.328Z,69.82
2023-07-12T15:31:38.967Z,69.99
2023-07-12T15:34:07.013Z,70.76
2023-07-12T15:36:35.025Z,70.88
2023-07-12T15:39:02.496Z,71.14
2023-07-12T15:41:30.289Z,71.00
2023-07-12T15:43:59.256Z,70.52
2023-07-12T15:46:30.413Z,70.83
2023-07-12T15:48:58.944Z,71.80
2023-07-12T15:51:31.704Z,71.14
2023-07-12T15:53:59.647Z,70.77
2023-07-12T15:56:31.143Z,70.86
2023-07-12T15:59:00.205Z,71.15
2023-07-12T16:01:30.341Z,70.70
2023-07-12T16:03:57.911Z,70.17
2023-07-12T16:06:26.397Z,70.00
2023-07-12T16:08:53.853Z,69.77
2023-07-12T16:11:34.222Z,69.65
2023-07-12T16:14:11.028Z,69.85
2023-07-12T16:16:38.239Z,70.74
2023-07-12T16:19:06.910Z,71.65
2023-07-12T16:21:35.140Z,71.72
2023-07-12T16:24:03.276Z,72.06
2023-07-12T16:26:34.118Z,72.12
2023-07-12T16:29:02.956Z,72.53
2023-07-12T16:31:33.488Z,72.30
2023-07-12T16:34:01.942Z,72.88
2023-07-12T16:36:30.154Z,71.86
2023-07-12T16:38:58.719Z,70.46
2023-07-12T16:41:29.343Z,70.98
2023-07-12T16:43:59.793Z,70.11
2023-07-12T16:46:28.036Z,70.54
2023-07-12T16:48:55.435Z,70.76
2023-07-12T16:51:28.900Z,71.40
2023-07-12T16:53:56.433Z,70.80
2023-07-12T16:56:26.459Z,71.78
2023-07-12T16:58:55.256Z,71.30
2023-07-12T17:01:27.128Z,71.82
2023-07-12T17:03:56.006Z,72.52
2023-07-12T17:06:23.710Z,72.57
2023-07-12T17:08:52.270Z,72.34
2023-07-12T17:11:21.444Z,71.18
2023-07-12T17:13:48.614Z,72.30
2023-07-12T17:16:17.649Z,72.41
2023-07-12T17:18:45.247Z,72.39
2023-07-12T17:21:18.565Z,72.79
2023-07-12T17:23:47.248Z,72.27
2023-07-12T17:26:16.933Z,73.02
2023-07-12T17:28:46.296Z,73.38
2023-07-12T17:31:22.267Z,74.13
2023-07-12T17:33:49.948Z,73.87
2023-07-12T17:36:23.731Z,74.54
2023-07-12T17:38:51.559Z,74.56
2023-07-12T17:41:21.632Z,75.27
2023-07-12T17:43:49.203Z,75.03
2023-07-12T17:46:16.788Z,74.99
2023-07-12T17:48:45.277Z,75.85
2023-07-12T17:51:23.970Z,75.92
2023-07-12T17:53:52.575Z,76.27
2023-07-12T17:56:21.274Z,76.81
2023-07-12T17:58:48.752Z,77.03
2023-07-12T18:01:22.549Z,76.81
2023-07-12T18:03:50.836Z,77.30
2023-07-12T18:06:23.522Z,77.09
2023-07-12T18:08:51.432Z,77.14
2023-07-12T18:11:36.681Z,77.59
2023-07-12T18:14:05.524Z,77.44
2023-07-12T18:16:34.138Z,77.76
2023-07-12T18:19:01.966Z,78.16
2023-07-12T18:21:36.730Z,78.25
2023-07-12T18:24:07.019Z,78.81
2023-07-12T18:26:34.423Z,79.06
2023-07-12T18:29:01.712Z,79.30
2023-07-12T18:31:31.396Z,79.66
2023-07-12T18:34:00.620Z,79.90
2023-07-12T18:36:34.155Z,79.23
2023-07-12T18:39:06.710Z,79.25
2023-07-12T18:41:34.560Z,79.71
2023-07-12T18:44:01.969Z,79.70
2023-07-12T18:46:30.897Z,80.17
2023-07-12T18:48:58.277Z,79.75
2023-07-12T18:51:28.620Z,79.69
2023-07-12T18:53:56.168Z,80.25
2023-07-12T18:56:30.692Z,80.09
2023-07-12T18:58:59.694Z,80.03
2023-07-12T19:01:32.677Z,80.04
2023-07-12T19:04:06.833Z,80.63
2023-07-12T19:09:06.440Z,81.11
2023-07-12T19:11:43.728Z,80.86
2023-07-12T19:14:17.984Z,81.31
2023-07-12T19:16:45.065Z,81.48
2023-07-12T19:19:12.196Z,81.04
2023-07-12T19:21:45.682Z,81.24
2023-07-12T19:24:13.974Z,81.63
2023-07-12T19:26:41.437Z,81.35
2023-07-12T19:29:10.026Z,81.83
2023-07-12T19:31:44.445Z,81.08
2023-07-12T19:34:16.802Z,81.22
2023-07-12T19:36:44.432Z,80.72
2023-07-12T19:39:12.087Z,80.85
2023-07-12T19:41:39.888Z,81.07
2023-07-12T19:44:07.067Z,80.54
2023-07-12T19:46:34.823Z,81.18
2023-07-12T19:49:02.280Z,81.01
2023-07-12T19:51:37.237Z,80.61
2023-07-12T19:54:06.479Z,80.68
2023-07-12T19:56:33.855Z,81.52
2023-07-12T19:59:02.380Z,81.57
2023-07-12T20:01:31.298Z,81.64
2023-07-12T20:04:00.172Z,81.49
2023-07-12T20:06:28.088Z,80.68
2023-07-12T20:08:56.829Z,80.69
2023-07-12T20:11:25.339Z,80.32
2023-07-12T20:13:54.301Z,80.19
2023-07-12T20:16:25.633Z,80.72
2023-07-12T20:18:53.245Z,80.57
2023-07-12T20:21:20.962Z,79.99
2023-07-12T20:23:49.483Z,79.96
2023-07-12T20:26:18.026Z,79.87
2023-07-12T20:28:45.809Z,79.59
2023-07-12T20:31:16.783Z,79.55
2023-07-12T20:33:44.761Z,79.86
2023-07-12T20:36:12.526Z,80.00
2023-07-12T20:38:39.896Z,79.57
2023-07-12T20:41:07.368Z,79.69
2023-07-12T20:43:35.287Z,80.19
2023-07-12T20:46:03.274Z,79.98
2023-07-12T20:48:35.993Z,79.61
2023-07-12T20:51:12.111Z,79.51
2023-07-12T20:53:44.774Z,79.88
2023-07-12T20:56:14.886Z,79.82
2023-07-12T20:58:43.069Z,79.68
2023-07-12T21:01:15.317Z,79.96
2023-07-12T21:03:42.673Z,80.20
2023-07-12T21:06:10.509Z,79.88
2023-07-12T21:08:38.355Z,79.79
2023-07-12T21:11:06.437Z,79.72
2023-07-12T21:13:34.640Z,79.88
2023-07-12T21:16:04.980Z,79.97
2023-07-12T21:18:32.147Z,80.38
2023-07-12T21:20:59.350Z,80.47
2023-07-12T21:23:27.238Z,80.08
2023-07-12T21:25:54.410Z,80.47
2023-07-12T21:28:21.824Z,80.34
2023-07-12T21:30:50.628Z,80.47
2023-07-12T21:33:19.184Z,79.85
2023-07-12T21:35:52.046Z,80.07
2023-07-12T21:38:20.019Z,79.86
2023-07-12T21:40:48.102Z,80.12
2023-07-12T21:43:17.274Z,79.57
2023-07-12T21:45:44.836Z,79.20
2023-07-12T21:48:11.992Z,79.62
2023-07-12T21:50:41.894Z,80.03
2023-07-12T21:53:10.517Z,79.80
2023-07-12T21:55:37.613Z,80.12
2023-07-12T21:58:05.303Z,80.58
2023-07-12T22:00:32.336Z,80.72
2023-07-12T22:02:59.647Z,80.45
2023-07-12T22:05:27.884Z,80.59
2023-07-12T22:07:57.626Z,80.36
2023-07-12T22:10:27.927Z,80.28
2023-07-12T22:12:55.767Z,80.29
2023-07-12T22:15:24.158Z,80.69
2023-07-12T22:17:52.383Z,80.50
2023-07-12T22:20:20.637Z,80.44
2023-07-12T22:22:49.327Z,80.34
2023-07-12T22:25:19.214Z,80.22
2023-07-12T22:27:47.977Z,80.57
2023-07-12T22:30:37.008Z,80.27
2023-07-12T22:33:05.903Z,80.24
2023-07-12T22:35:34.298Z,80.53
2023-07-12T22:38:02.149Z,80.26
2023-07-12T22:40:30.494Z,80.00
2023-07-12T22:42:58.915Z,79.43
2023-07-12T22:45:27.626Z,79.48
2023-07-12T22:47:55.815Z,79.64
2023-07-12T22:50:24.061Z,79.46
2023-07-12T22:52:52.306Z,79.40
2023-07-12T22:55:20.604Z,79.37
2023-07-12T22:57:48.104Z,79.09
2023-07-12T23:00:18.564Z,78.79
2023-07-12T23:02:45.912Z,79.05
2023-07-12T23:05:15.994Z,78.82
2023-07-12T23:07:43.019Z,79.03
2023-07-12T23:10:10.860Z,78.73
2023-07-12T23:12:40.133Z,78.61
2023-07-12T23:15:11.057Z,79.14
2023-07-12T23:17:39.149Z,78.76
2023-07-12T23:20:12.368Z,78.75
2023-07-12T23:22:40.356Z,78.48
2023-07-12T23:25:08.845Z,78.83
2023-07-12T23:27:38.561Z,78.88
2023-07-12T23:30:07.261Z,79.08
2023-07-12T23:32:35.977Z,78.79
2023-07-12T23:35:04.581Z,78.97
2023-07-12T23:37:32.106Z,78.54
2023-07-12T23:39:59.210Z,78.88
2023-07-12T23:42:26.342Z,78.50
2023-07-12T23:44:53.569Z,77.95
2023-07-12T23:47:20.704Z,76.78
2023-07-12T23:49:47.841Z,77.22
2023-07-12T23:52:17.350Z,77.18
2023-07-12T23:54:45.450Z,77.59
2023-07-12T23:57:12.742Z,77.64
2023-07-12T23:59:39.818Z,76.30
